KPSF/PSF METAR and TAF weather

Enter ICAO airport designator
Station Type Date Time Source
KPSF METAR 2022/11/26 09:54 UTC NOAA

KPSF 260954Z AUTO 32012G21KT 10SM OVC036 02/M05 A2987 RMK AO2 PK WND 31028/0910 SLP117 T00221050


Station Type Date Time Source
KPSF Decoded METAR 2022/11/26 09:54 UTC NOAA

PITTSFIELD MUNICIPAL AIRPORT , MA, United States (KPSF) 42-26N 073-17W 355M
Nov 26, 2022 - 04:54 AM EST / 2022.11.26 0954 UTC
Wind: from the NW (320 degrees) at 14 MPH (12 KT) gusting to 24 MPH (21 KT):0
Visibility: 10 mile(s):0
Sky conditions: overcast
Temperature: 36.0 F (2.2 C)
Dew Point: 23.0 F (-5.0 C)
Relative Humidity: 58%
Pressure (altimeter): 29.87 in. Hg (1011 hPa)
ob: KPSF 260954Z AUTO 32012G21KT 10SM OVC036 02/M05 A2987 RMK AO2 PK WND 31028/0910 SLP117 T00221050
cycle: 10

Station Type Date Time Source
KPSF TAF 2022/11/26 06:33 UTC NOAA

TAF KPSF 260531Z 2606/2706 30018G25KT P6SM OVC040
TEMPO 2609/2613 BKN025
FM261300 29011G26KT P6SM BKN025
FM261600 29010G24KT P6SM SCT250
FM262100 27008KT P6SM SKC WS020/30040KT

Example: see airport list